createdAt,value
2023-02-01T02:21:16.329Z,100634.78
2023-02-01T02:24:11.635Z,100633.84
2023-02-01T02:27:04.345Z,100638.63
2023-02-01T02:29:55.794Z,100631.41
2023-02-01T02:32:41.714Z,100638.38
2023-02-01T02:35:29.231Z,100636.09
2023-02-01T02:38:24.766Z,100637.44
2023-02-01T02:41:35.781Z,100632.50
2023-02-01T02:44:32.581Z,100628.53
2023-02-01T02:47:25.714Z,100644.53
2023-02-01T02:50:14.475Z,100637.91
2023-02-01T02:53:08.023Z,100634.06
2023-02-01T02:55:39.397Z,100637.91
2023-02-01T02:58:28.641Z,100631.53
2023-02-01T03:01:16.263Z,100635.25
2023-02-01T03:04:05.049Z,100629.97
2023-02-01T03:06:34.516Z,100627.22
2023-02-01T03:09:09.183Z,100634.06
2023-02-01T03:11:55.895Z,100626.63
2023-02-01T03:14:29.909Z,100623.03
2023-02-01T03:17:09.675Z,100621.34
2023-02-01T03:19:44.886Z,100613.63
2023-02-01T03:22:16.754Z,100625.91
2023-02-01T03:24:51.455Z,100615.44
2023-02-01T03:28:01.145Z,100619.03
2023-02-01T03:30:37.475Z,100611.94
2023-02-01T03:33:15.194Z,100618.81
2023-02-01T03:35:50.319Z,100617.59
2023-02-01T03:38:45.649Z,100619.38
2023-02-01T03:41:13.428Z,100617.47
2023-02-01T03:43:54.077Z,100619.38
2023-02-01T03:46:34.389Z,100617.72
2023-02-01T03:49:07.938Z,100614.09
2023-02-01T03:51:39.487Z,100610.03
2023-02-01T03:54:14.919Z,100615.09
2023-02-01T03:56:47.526Z,100617.00
2023-02-01T03:59:16.114Z,100622.53
2023-02-01T04:01:44.371Z,100629.78
2023-02-01T04:04:21.091Z,100628.44
2023-02-01T04:06:50.815Z,100626.13
2023-02-01T04:09:19.826Z,100629.63
2023-02-01T04:11:48.766Z,100635.03
2023-02-01T04:14:18.340Z,100625.44
2023-02-01T04:16:46.878Z,100641.91
2023-02-01T04:19:16.237Z,100641.06
2023-02-01T04:21:44.845Z,100633.34
2023-02-01T04:24:13.259Z,100645.03
2023-02-01T04:26:41.715Z,100645.63
2023-02-01T04:29:11.574Z,100643.00
2023-02-01T04:31:40.084Z,100644.31
2023-02-01T04:34:10.843Z,100651.63
2023-02-01T04:36:38.597Z,100651.88
2023-02-01T04:39:07.066Z,100659.78
2023-02-01T04:41:35.106Z,100652.59
2023-02-01T04:44:03.811Z,100650.91
2023-02-01T04:46:32.098Z,100649.22
2023-02-01T04:49:00.205Z,100645.63
2023-02-01T04:51:28.778Z,100641.31
2023-02-01T04:53:57.071Z,100639.84
2023-02-01T04:56:27.535Z,100650.91
2023-02-01T04:58:56.595Z,100652.59
2023-02-01T05:01:28.322Z,100648.03
2023-02-01T05:03:59.143Z,100644.53
2023-02-01T05:06:27.046Z,100652.97
2023-02-01T05:08:54.907Z,100656.22
2023-02-01T05:11:42.113Z,100667.16
2023-02-01T05:14:10.354Z,100668.84
2023-02-01T05:16:38.251Z,100680.03
2023-02-01T05:19:06.219Z,100681.34
2023-02-01T05:21:34.733Z,100672.56
2023-02-01T05:24:11.892Z,100679.44
2023-02-01T05:26:43.100Z,100667.72
2023-02-01T05:29:12.830Z,100673.75
2023-02-01T05:31:41.362Z,100678.09
2023-02-01T05:34:09.263Z,100675.00
2023-02-01T05:36:37.312Z,100677.53
2023-02-01T05:39:05.270Z,100685.06
2023-02-01T05:41:37.017Z,100684.50
2023-02-01T05:44:08.452Z,100687.59
2023-02-01T05:46:38.619Z,100692.16
2023-02-01T05:49:08.318Z,100696.16
2023-02-01T05:51:38.836Z,100689.78
2023-02-01T05:54:10.847Z,100678.25
2023-02-01T05:56:40.600Z,100685.34
2023-02-01T06:04:45.581Z,100692.66
2023-02-01T06:07:24.086Z,100693.91
2023-02-01T06:15:52.651Z,100700.75
2023-02-01T06:23:16.971Z,100694.59
2023-02-01T06:25:46.323Z,100705.78
2023-02-01T06:28:15.045Z,100696.88
2023-02-01T06:30:47.631Z,100708.66
2023-02-01T06:33:16.512Z,100703.88
2023-02-01T06:35:52.663Z,100713.72
2023-02-01T06:38:38.699Z,100715.66
2023-02-01T10:36:30.507Z,100668.22
2023-02-01T10:39:03.368Z,100677.28
2023-02-01T10:41:38.329Z,100680.44
2023-02-01T10:44:15.638Z,100675.44
2023-02-01T10:46:44.133Z,100683.44
2023-02-01T10:49:38.582Z,100679.63
2023-02-01T10:52:18.256Z,100683.28
2023-02-01T10:54:47.134Z,100674.94
2023-02-01T10:57:27.268Z,100677.56
2023-02-01T11:00:06.221Z,100682.88
2023-02-01T11:02:36.752Z,100683.06
2023-02-01T11:05:15.641Z,100690.31
2023-02-01T11:07:56.609Z,100690.84
2023-02-01T11:10:45.958Z,100691.13
2023-02-01T11:13:19.907Z,100690.66
2023-02-01T11:15:59.280Z,100685.09
2023-02-01T11:18:37.134Z,100688.25
2023-02-01T11:21:08.211Z,100683.44
2023-02-01T11:23:44.577Z,100686.56
2023-02-01T11:26:25.067Z,100693.53
2023-02-01T11:29:00.919Z,100697.13
2023-02-01T11:31:30.257Z,100703.63
2023-02-01T11:34:13.023Z,100694.00
2023-02-01T11:36:47.247Z,100691.72
2023-02-01T11:39:33.158Z,100702.13
2023-02-01T11:42:16.910Z,100690.38
2023-02-01T11:44:48.454Z,100700.94
2023-02-01T11:47:48.559Z,100698.06
2023-02-01T11:50:34.650Z,100701.22
2023-02-01T11:53:43.197Z,100692.88
2023-02-01T11:56:26.359Z,100695.28
2023-02-01T11:59:19.904Z,100707.91
2023-02-01T12:02:09.636Z,100707.94
2023-02-01T12:05:16.460Z,100699.75
2023-02-01T12:08:01.718Z,100706.13
2023-02-01T12:10:48.415Z,100704.28
2023-02-01T12:13:41.672Z,100707.06
2023-02-01T12:16:49.655Z,100711.59
2023-02-01T12:19:57.934Z,100714.41
2023-02-01T12:23:17.220Z,100713.09
2023-02-01T12:26:38.350Z,100714.25
2023-02-01T12:29:23.019Z,100706.81
2023-02-01T12:32:18.285Z,100714.28
2023-02-01T12:35:39.944Z,100708.28
2023-02-01T12:38:38.867Z,100704.50
2023-02-01T12:41:45.301Z,100712.31
2023-02-01T12:44:52.122Z,100707.03
2023-02-01T12:47:38.496Z,100711.28
2023-02-01T12:50:06.768Z,100713.41
2023-02-01T12:52:54.017Z,100717.06
2023-02-01T12:55:30.254Z,100716.16
2023-02-01T12:58:20.264Z,100719.19
2023-02-01T13:01:09.091Z,100721.16
2023-02-01T13:03:57.745Z,100720.03
2023-02-01T13:06:32.688Z,100719.81
2023-02-01T13:09:30.826Z,100715.38
2023-02-01T13:12:23.161Z,100717.69
2023-02-01T13:15:04.234Z,100718.69
2023-02-01T13:17:35.524Z,100720.00
2023-02-01T13:20:29.978Z,100717.84
2023-02-01T13:23:31.342Z,100727.94
2023-02-01T13:26:18.602Z,100724.56
2023-02-01T13:29:21.211Z,100715.00
2023-02-01T13:32:54.785Z,100734.16
2023-02-01T13:35:44.088Z,100736.34
2023-02-01T13:38:50.486Z,100733.59
2023-02-01T13:41:56.456Z,100737.63
2023-02-01T13:44:36.187Z,100731.69
2023-02-01T13:47:37.815Z,100736.34
2023-02-01T13:50:36.007Z,100733.69
2023-02-01T13:53:34.317Z,100741.38
2023-02-01T13:56:51.141Z,100751.34
2023-02-01T13:59:51.911Z,100755.06
2023-02-01T14:02:53.217Z,100753.06
2023-02-01T14:05:40.505Z,100764.63
2023-02-01T14:08:12.365Z,100763.72
2023-02-01T14:13:47.594Z,100764.50
2023-02-01T14:16:28.600Z,100769.31
2023-02-01T14:19:08.790Z,100772.13
2023-02-01T14:22:04.954Z,100777.81
2023-02-01T14:24:39.984Z,100776.97
2023-02-01T14:27:27.032Z,100777.03
2023-02-01T14:30:10.573Z,100778.94
2023-02-01T14:33:01.530Z,100782.69
2023-02-01T14:38:43.165Z,100779.50
2023-02-01T14:41:42.663Z,100778.00
2023-02-01T14:44:59.216Z,100782.91
2023-02-01T14:47:33.766Z,100786.03
2023-02-01T14:50:34.904Z,100785.13
2023-02-01T14:53:21.590Z,100785.94
2023-02-01T14:56:03.502Z,100788.06
2023-02-01T14:59:15.771Z,100782.06
2023-02-01T15:01:58.016Z,100784.81
2023-02-01T15:04:55.121Z,100782.63
2023-02-01T15:07:34.755Z,100789.47
2023-02-01T15:10:07.581Z,100798.47
2023-02-01T15:12:42.084Z,100803.59
2023-02-01T15:18:05.496Z,100802.31
2023-02-01T15:20:37.073Z,100803.03
2023-02-01T15:23:21.471Z,100802.31
2023-02-01T15:25:52.831Z,100804.78
2023-02-01T15:28:25.541Z,100812.25
2023-02-01T15:31:00.225Z,100813.53
2023-02-01T15:33:32.647Z,100811.56
2023-02-01T15:36:13.672Z,100813.09
2023-02-01T15:38:45.789Z,100814.63
2023-02-01T15:41:35.075Z,100808.97
2023-02-01T15:44:40.073Z,100813.00
2023-02-01T15:47:25.563Z,100812.06
2023-02-01T15:50:02.058Z,100817.84
2023-02-01T15:52:39.633Z,100818.88
2023-02-01T15:55:43.630Z,100818.66
2023-02-01T15:58:26.030Z,100825.25
2023-02-01T16:01:03.513Z,100830.47
2023-02-01T16:03:52.544Z,100825.50
2023-02-01T16:06:27.624Z,100832.03
2023-02-01T16:09:14.656Z,100835.06
2023-02-01T16:11:56.306Z,100829.88
2023-02-01T16:14:34.288Z,100834.31
2023-02-01T16:17:02.512Z,100825.59
2023-02-01T16:19:33.531Z,100835.53
2023-02-01T16:22:19.935Z,100829.13
2023-02-01T16:24:51.758Z,100830.91
2023-02-01T16:27:27.761Z,100825.66
2023-02-01T16:29:58.350Z,100827.25
2023-02-01T16:32:30.117Z,100837.09
2023-02-01T16:35:03.426Z,100835.16
2023-02-01T16:37:56.417Z,100838.44
2023-02-01T16:40:27.789Z,100844.16
2023-02-01T16:43:06.925Z,100846.28
2023-02-01T16:45:37.841Z,100840.34
2023-02-01T16:48:10.543Z,100834.06
2023-02-01T16:50:40.029Z,100825.97
2023-02-01T16:53:14.571Z,100824.22
2023-02-01T16:55:51.822Z,100823.69
2023-02-01T16:58:21.756Z,100835.03
2023-02-01T17:00:56.915Z,100827.81
2023-02-01T17:03:47.465Z,100840.59
2023-02-01T17:06:22.028Z,100845.41
2023-02-01T17:08:58.038Z,100839.19
2023-02-01T17:11:44.209Z,100840.56
2023-02-01T17:14:43.703Z,100849.28
2023-02-01T17:17:12.669Z,100840.59
2023-02-01T17:19:49.420Z,100840.78
2023-02-01T17:22:25.550Z,100841.44
2023-02-01T17:24:58.262Z,100835.44
2023-02-01T17:27:32.997Z,100830.31
2023-02-01T17:36:09.341Z,100828.66
2023-02-01T17:38:41.807Z,100837.31
2023-02-01T17:41:15.324Z,100830.34
2023-02-01T17:43:44.833Z,100840.81
2023-02-01T17:46:17.087Z,100843.88
2023-02-01T17:48:45.884Z,100839.28
2023-02-01T17:51:28.416Z,100841.72
2023-02-01T17:53:57.512Z,100841.28
2023-02-01T17:56:38.084Z,100846.03
2023-02-01T17:59:06.956Z,100843.56
2023-02-01T18:01:37.357Z,100842.13
2023-02-01T18:04:06.101Z,100833.44
2023-02-01T18:06:40.662Z,100832.13
2023-02-01T18:09:10.000Z,100837.28
2023-02-01T18:11:40.069Z,100833.91
2023-02-01T18:14:16.913Z,100836.72
2023-02-01T18:16:47.302Z,100844.94
2023-02-01T18:19:20.455Z,100839.06
2023-02-01T23:40:13.409Z,100778.59
2023-02-01T23:43:31.023Z,100770.59
2023-02-01T23:48:56.550Z,100759.66
2023-02-01T23:54:54.549Z,100763.03
2023-02-01T23:57:26.197Z,100760.41
